Time;durP1;ratioP1;P1;durP2;ratioP2;P2;SDS_P1;SDS_P2;PMS_P1;PMS_P2;Temp;Humidity;BMP_temperature;BMP_pressure;BME280_temperature;BME280_humidity;BME280_pressure;Samples;Min_cycle;Max_cycle;Signal;HPM_P1;HPM_P2
2021/04/17 00:00:54;;;;;;;1.40;0.90;;;17.70;49.40;;;;;;5041967;28;20212;-68
2021/04/17 00:03:19;;;;;;;0.85;0.77;;;17.70;49.30;;;;;;5058080;28;20200;-69
2021/04/17 00:05:45;;;;;;;1.25;0.80;;;17.70;49.30;;;;;;5076454;28;20614;-69
2021/04/17 00:08:10;;;;;;;0.90;0.90;;;17.70;49.40;;;;;;5076524;28;20206;-68
2021/04/17 00:10:36;;;;;;;1.00;0.90;;;17.60;49.30;;;;;;5024584;28;20166;-68
2021/04/17 00:13:02;;;;;;;0.60;0.60;;;17.60;49.30;;;;;;5058489;28;20196;-68
2021/04/17 00:15:27;;;;;;;1.17;0.93;;;17.60;49.30;;;;;;5057584;28;20210;-68
2021/04/17 00:17:53;;;;;;;0.60;0.60;;;17.60;49.30;;;;;;5058468;28;20170;-67
2021/04/17 00:20:18;;;;;;;1.17;1.08;;;17.60;49.30;;;;;;5076015;28;20189;-67
2021/04/17 00:22:44;;;;;;;0.80;0.80;;;17.60;49.30;;;;;;5075648;28;20174;-68
2021/04/17 00:25:10;;;;;;;0.70;0.70;;;17.60;49.30;;;;;;5058216;28;20245;-68
2021/04/17 00:27:36;;;;;;;0.70;0.70;;;17.60;49.30;;;;;;5075884;28;20166;-68
2021/04/17 00:30:02;;;;;;;0.80;0.80;;;17.60;49.30;;;;;;5075666;28;20661;-68
2021/04/17 00:32:28;;;;;;;0.70;0.70;;;17.60;49.30;;;;;;5058176;28;20194;-68
2021/04/17 00:34:53;;;;;;;1.05;0.95;;;17.60;49.40;;;;;;5076041;28;20256;-68
2021/04/17 00:37:19;;;;;;;0.75;0.75;;;17.50;49.40;;;;;;5057102;28;20210;-69
2021/04/17 00:39:44;;;;;;;1.27;0.80;;;17.50;50.00;;;;;;5075876;28;20173;-68
2021/04/17 00:42:10;;;;;;;0.85;0.70;;;17.50;49.40;;;;;;5075807;28;20178;-68
2021/04/17 00:44:36;;;;;;;0.55;0.50;;;17.50;49.40;;;;;;5075046;28;20171;-69
2021/04/17 00:47:05;;;;;;;0.90;0.80;;;17.50;49.40;;;;;;5058058;28;20279;-68
2021/04/17 00:49:31;;;;;;;1.20;1.10;;;17.50;49.40;;;;;;5057846;28;20228;-68
2021/04/17 00:51:57;;;;;;;0.70;0.70;;;17.50;49.40;;;;;;5040720;28;20174;-67
2021/04/17 00:54:23;;;;;;;1.13;0.90;;;17.50;49.40;;;;;;5057578;28;20235;-67
2021/04/17 00:56:49;;;;;;;0.80;0.80;;;17.50;49.40;;;;;;5075481;28;20207;-68
2021/04/17 00:59:14;;;;;;;0.60;0.60;;;17.50;49.30;;;;;;5057072;28;20238;-68
2021/04/17 01:01:40;;;;;;;0.82;0.82;;;17.50;49.40;;;;;;5075258;28;20692;-68
2021/04/17 01:04:16;;;;;;;0.98;0.88;;;17.50;49.40;;;;;;5040872;28;20209;-68
2021/04/17 01:06:58;;;;;;;1.35;0.73;;;17.50;49.40;;;;;;5056834;28;20162;-69
2021/04/17 01:09:26;;;;;;;0.93;0.93;;;17.40;49.30;;;;;;5057216;28;20179;-68
2021/04/17 01:12:10;;;;;;;0.95;0.90;;;17.40;49.30;;;;;;5074616;28;20163;-67
2021/04/17 01:14:36;;;;;;;0.73;0.73;;;17.40;49.40;;;;;;5040899;28;20216;-67
2021/04/17 01:17:03;;;;;;;0.80;0.80;;;17.40;49.30;;;;;;5024067;28;20599;-67
2021/04/17 01:19:40;;;;;;;0.82;0.82;;;17.40;49.30;;;;;;5039948;28;20218;-68
2021/04/17 01:22:20;;;;;;;0.65;0.63;;;17.40;49.40;;;;;;5057155;28;20174;-68
2021/04/17 01:24:48;;;;;;;0.70;0.70;;;17.40;49.40;;;;;;5025073;28;20166;-67
2021/04/17 01:27:14;;;;;;;0.70;0.70;;;17.30;49.30;;;;;;5056646;28;20685;-67
2021/04/17 01:29:40;;;;;;;1.80;1.10;;;17.40;49.40;;;;;;5040161;28;20178;-67
2021/04/17 01:32:11;;;;;;;0.70;0.70;;;17.40;49.40;;;;;;5040576;28;20170;-68
2021/04/17 01:34:37;;;;;;;0.98;0.80;;;17.30;49.30;;;;;;5039701;28;20691;-68
2021/04/17 01:37:03;;;;;;;1.02;0.93;;;17.30;49.40;;;;;;5057025;28;20194;-68
2021/04/17 01:39:28;;;;;;;0.70;0.70;;;17.30;49.40;;;;;;5040160;28;20174;-68
2021/04/17 01:42:02;;;;;;;1.20;0.90;;;17.30;49.40;;;;;;5039558;28;20178;-68
2021/04/17 01:44:28;;;;;;;0.70;0.70;;;17.30;50.00;;;;;;5040377;28;20175;-69
2021/04/17 01:47:00;;;;;;;0.82;0.82;;;17.30;49.30;;;;;;5056146;28;20179;-69
2021/04/17 01:49:26;;;;;;;1.05;0.73;;;17.30;49.40;;;;;;5074338;28;20170;-68
2021/04/17 01:51:51;;;;;;;0.93;0.93;;;17.30;49.40;;;;;;5040128;28;20657;-67
2021/04/17 01:54:19;;;;;;;0.80;0.77;;;17.30;49.40;;;;;;5039450;28;20215;-67
2021/04/17 01:56:46;;;;;;;0.80;0.80;;;17.30;49.40;;;;;;5074604;28;20206;-68
2021/04/17 01:59:13;;;;;;;0.90;0.82;;;17.30;49.50;;;;;;5040300;28;20167;-68
2021/04/17 02:01:38;;;;;;;1.48;0.90;;;17.20;49.40;;;;;;5039219;28;20235;-68
2021/04/17 02:04:04;;;;;;;0.80;0.80;;;17.30;49.40;;;;;;5039765;28;20626;-69
2021/04/17 02:06:30;;;;;;;1.20;1.10;;;17.20;49.40;;;;;;5056151;28;20204;-69
2021/04/17 02:08:55;;;;;;;1.05;0.80;;;17.20;49.40;;;;;;5055559;28;20630;-68
2021/04/17 02:11:21;;;;;;;0.93;0.77;;;17.20;49.50;;;;;;5073991;28;20182;-68
2021/04/17 02:13:46;;;;;;;0.93;0.80;;;17.20;49.50;;;;;;5074103;28;20171;-68
2021/04/17 02:16:24;;;;;;;0.88;0.75;;;17.20;49.40;;;;;;5055499;28;20293;-67
2021/04/17 02:19:01;;;;;;;1.05;0.93;;;17.20;49.50;;;;;;5056428;28;20581;-68
2021/04/17 02:21:38;;;;;;;1.13;1.00;;;17.20;49.40;;;;;;5038890;28;20170;-68
2021/04/17 02:24:05;;;;;;;1.23;1.05;;;17.20;49.40;;;;;;5055542;28;20158;-68
2021/04/17 02:26:31;;;;;;;0.80;0.80;;;17.20;49.50;;;;;;5039332;28;20261;-68
2021/04/17 02:28:56;;;;;;;0.77;0.77;;;17.20;49.50;;;;;;5039171;28;20273;-68
2021/04/17 02:31:24;;;;;;;1.30;1.00;;;17.20;49.50;;;;;;5038232;28;20182;-68
2021/04/17 02:33:49;;;;;;;1.00;0.80;;;17.10;49.40;;;;;;5073611;28;20174;-68
2021/04/17 02:36:15;;;;;;;0.82;0.82;;;17.10;49.40;;;;;;5055341;28;20259;-68
2021/04/17 02:38:41;;;;;;;1.30;1.10;;;17.10;49.40;;;;;;5055500;28;20547;-68
2021/04/17 02:41:06;;;;;;;0.90;0.90;;;17.10;49.50;;;;;;5055682;28;20162;-68
2021/04/17 02:43:32;;;;;;;0.93;0.80;;;17.10;49.50;;;;;;5054862;28;20170;-69
2021/04/17 02:45:58;;;;;;;0.85;0.85;;;17.10;49.50;;;;;;5073280;28;20256;-69
2021/04/17 02:48:23;;;;;;;0.85;0.85;;;17.10;49.50;;;;;;5073279;28;20193;-68
2021/04/17 02:50:49;;;;;;;0.90;0.82;;;17.10;49.50;;;;;;5072628;28;20502;-68
2021/04/17 02:53:14;;;;;;;0.75;0.75;;;17.10;49.50;;;;;;5073429;28;20174;-67
2021/04/17 02:55:40;;;;;;;0.80;0.80;;;17.10;49.50;;;;;;5072874;28;20634;-67
2021/04/17 02:58:06;;;;;;;0.73;0.73;;;17.10;49.50;;;;;;5072624;28;20202;-68
2021/04/17 03:00:31;;;;;;;0.90;0.90;;;17.10;49.50;;;;;;5073092;28;20181;-69
2021/04/17 03:02:57;;;;;;;0.80;0.80;;;17.00;49.50;;;;;;5073051;28;20680;-69
2021/04/17 03:05:23;;;;;;;1.35;1.02;;;17.10;49.60;;;;;;5054413;28;20186;-69
2021/04/17 03:07:48;;;;;;;0.70;0.70;;;17.00;50.10;;;;;;5038646;28;20258;-68
2021/04/17 03:10:14;;;;;;;0.93;0.77;;;17.00;49.50;;;;;;5055316;28;20178;-68
2021/04/17 03:12:39;;;;;;;1.13;1.05;;;17.00;49.50;;;;;;5054675;28;20178;-67
2021/04/17 03:15:06;;;;;;;0.95;0.93;;;17.00;49.50;;;;;;5054958;28;20262;-68
2021/04/17 03:17:31;;;;;;;0.93;0.82;;;17.00;49.50;;;;;;5038294;28;20183;-68
2021/04/17 03:19:57;;;;;;;1.25;1.00;;;17.00;49.50;;;;;;5021196;28;20641;-68
2021/04/17 03:22:22;;;;;;;1.00;0.95;;;17.00;49.50;;;;;;5054787;28;20181;-67
2021/04/17 03:24:48;;;;;;;0.68;0.68;;;17.00;49.60;;;;;;5072764;28;20166;-67
2021/04/17 03:27:14;;;;;;;0.88;0.80;;;17.00;49.60;;;;;;5054498;28;20194;-68
2021/04/17 03:29:39;;;;;;;0.60;0.60;;;17.00;49.70;;;;;;5054638;28;20537;-67
2021/04/17 03:32:05;;;;;;;1.58;0.95;;;17.00;49.60;;;;;;5054920;28;20171;-68
2021/04/17 03:34:31;;;;;;;0.73;0.70;;;17.00;49.70;;;;;;5071687;28;20546;-68
2021/04/17 03:36:57;;;;;;;1.65;0.77;;;16.90;49.60;;;;;;5038232;28;20206;-68
2021/04/17 03:39:22;;;;;;;0.70;0.70;;;16.90;49.70;;;;;;5054137;28;20166;-68
2021/04/17 03:41:48;;;;;;;0.98;0.90;;;16.90;49.60;;;;;;5072541;28;20171;-68
2021/04/17 03:44:13;;;;;;;1.30;0.70;;;16.90;49.60;;;;;;5054816;28;20253;-68
2021/04/17 03:46:39;;;;;;;0.90;0.90;;;16.90;49.60;;;;;;5071760;28;20224;-68
2021/04/17 03:49:05;;;;;;;0.80;0.80;;;16.90;49.60;;;;;;5038025;28;20172;-68
2021/04/17 03:51:30;;;;;;;0.65;0.65;;;16.90;49.60;;;;;;5054448;28;20236;-67
2021/04/17 03:53:56;;;;;;;1.23;0.88;;;16.90;49.60;;;;;;5037322;28;20171;-67
2021/04/17 03:56:22;;;;;;;1.10;0.80;;;16.90;49.60;;;;;;5054905;28;20210;-68
2021/04/17 03:58:47;;;;;;;1.20;0.77;;;16.90;49.60;;;;;;5037972;28;20216;-68
2021/04/17 04:01:13;;;;;;;0.90;0.90;;;16.90;49.70;;;;;;5020963;28;20518;-68
2021/04/17 04:03:39;;;;;;;0.80;0.80;;;16.90;49.60;;;;;;5072169;28;20174;-68
2021/04/17 04:06:04;;;;;;;1.10;0.90;;;16.90;49.70;;;;;;5054483;28;20650;-68
2021/04/17 04:08:30;;;;;;;1.27;0.82;;;16.90;49.70;;;;;;5037366;28;20174;-68
2021/04/17 04:10:56;;;;;;;0.75;0.75;;;16.90;49.70;;;;;;5054554;28;20626;-67
2021/04/17 04:13:21;;;;;;;1.17;0.90;;;16.90;49.60;;;;;;5037856;28;20216;-68
2021/04/17 04:15:47;;;;;;;0.50;0.50;;;16.90;49.70;;;;;;5053781;28;20190;-67
2021/04/17 04:18:12;;;;;;;0.70;0.70;;;16.80;49.60;;;;;;5054341;28;20560;-67
2021/04/17 04:20:38;;;;;;;1.20;0.90;;;16.80;50.30;;;;;;5037405;28;20170;-67
2021/04/17 04:23:04;;;;;;;0.98;0.70;;;16.80;49.70;;;;;;5071775;28;20178;-67
2021/04/17 04:25:30;;;;;;;1.58;0.80;;;16.80;49.60;;;;;;5071943;28;20650;-67
2021/04/17 04:27:55;;;;;;;0.95;0.88;;;16.80;49.60;;;;;;5054623;28;20262;-67
2021/04/17 04:30:22;;;;;;;0.75;0.75;;;16.80;49.70;;;;;;5071327;28;20177;-67
2021/04/17 04:32:47;;;;;;;0.95;0.88;;;16.80;49.70;;;;;;5054269;28;20178;-68
2021/04/17 04:35:13;;;;;;;0.70;0.63;;;16.80;49.70;;;;;;5071919;28;20181;-68
2021/04/17 04:37:39;;;;;;;1.35;0.90;;;16.80;49.70;;;;;;5053580;28;20214;-68
2021/04/17 04:40:06;;;;;;;1.10;0.70;;;16.80;49.70;;;;;;5054237;28;20245;-68
2021/04/17 04:42:31;;;;;;;0.70;0.68;;;16.80;49.70;;;;;;5054222;28;20175;-68
2021/04/17 04:44:57;;;;;;;0.70;0.70;;;16.70;49.60;;;;;;5075030;28;20170;-68
2021/04/17 04:47:22;;;;;;;1.00;0.65;;;16.80;49.70;;;;;;5075649;28;20162;-68
2021/04/17 04:49:48;;;;;;;0.80;0.80;;;16.70;49.70;;;;;;5040670;28;20182;-67
2021/04/17 04:52:14;;;;;;;1.15;1.00;;;16.70;49.70;;;;;;5024758;28;20178;-67
2021/04/17 04:54:39;;;;;;;1.10;0.90;;;16.70;49.70;;;;;;5075184;28;20170;-67
2021/04/17 04:57:05;;;;;;;0.70;0.70;;;16.70;49.70;;;;;;5057152;28;20210;-67
2021/04/17 04:59:31;;;;;;;0.60;0.60;;;16.70;49.70;;;;;;5075317;28;20175;-68
2021/04/17 05:01:57;;;;;;;1.63;0.90;;;16.70;49.70;;;;;;5075414;28;20206;-68
2021/04/17 05:04:22;;;;;;;0.60;0.60;;;16.70;49.70;;;;;;5056754;28;20253;-68
2021/04/17 05:06:48;;;;;;;0.80;0.80;;;16.70;49.80;;;;;;5075204;28;20554;-68
2021/04/17 05:09:13;;;;;;;1.15;0.77;;;16.70;50.40;;;;;;5075434;28;20163;-68
2021/04/17 05:11:39;;;;;;;0.98;0.80;;;16.70;49.60;;;;;;5056742;28;20230;-67
2021/04/17 05:14:04;;;;;;;0.73;0.50;;;16.70;49.70;;;;;;5075096;28;20171;-67
2021/04/17 05:16:30;;;;;;;0.65;0.65;;;16.80;49.80;;;;;;5074904;28;20692;-67
2021/04/17 05:18:56;;;;;;;1.20;0.90;;;16.90;49.70;;;;;;5074365;28;20686;-67
2021/04/17 05:21:21;;;;;;;1.15;0.80;;;17.10;49.60;;;;;;5075021;28;20177;-67
2021/04/17 05:23:47;;;;;;;0.63;0.63;;;17.30;49.40;;;;;;5075055;28;20175;-67
2021/04/17 05:26:12;;;;;;;0.80;0.80;;;17.50;49.20;;;;;;5074524;28;20171;-67
2021/04/17 05:28:38;;;;;;;0.57;0.50;;;17.80;48.80;;;;;;5056931;28;20530;-67
2021/04/17 05:31:04;;;;;;;0.60;0.60;;;18.00;48.50;;;;;;5057106;28;20174;-67
2021/04/17 05:33:29;;;;;;;0.63;0.63;;;18.10;48.30;;;;;;5074076;28;20171;-68
2021/04/17 05:35:55;;;;;;;0.73;0.70;;;18.30;48.10;;;;;;5056844;28;20205;-68
2021/04/17 05:38:21;;;;;;;0.75;0.75;;;18.40;47.60;;;;;;5056659;28;20610;-68
2021/04/17 05:40:46;;;;;;;0.60;0.60;;;18.60;47.40;;;;;;5056265;28;20171;-68
2021/04/17 05:43:12;;;;;;;1.27;0.70;;;18.60;47.20;;;;;;5074737;28;20166;-68
2021/04/17 05:45:37;;;;;;;0.88;0.77;;;18.70;47.10;;;;;;5074287;28;20633;-68
2021/04/17 05:48:03;;;;;;;0.68;0.55;;;18.80;47.10;;;;;;5074006;28;20178;-68
2021/04/17 05:50:29;;;;;;;0.82;0.73;;;18.80;47.00;;;;;;5074290;28;20189;-67
2021/04/17 05:52:54;;;;;;;0.65;0.50;;;18.90;46.90;;;;;;5056635;28;20178;-67
2021/04/17 05:55:20;;;;;;;1.45;0.60;;;18.90;46.90;;;;;;5038076;28;20167;-67
2021/04/17 05:57:46;;;;;;;0.70;0.63;;;18.90;46.90;;;;;;5040008;28;20519;-68
2021/04/17 06:00:12;;;;;;;0.50;0.50;;;18.90;46.90;;;;;;5073856;28;20254;-68
2021/04/17 06:02:38;;;;;;;0.60;0.60;;;18.80;47.00;;;;;;5074078;28;20181;-69
2021/04/17 06:05:04;;;;;;;0.77;0.60;;;18.80;47.20;;;;;;5074215;28;20171;-69
2021/04/17 06:07:30;;;;;;;0.65;0.50;;;18.60;47.30;;;;;;5055766;28;20185;-68
2021/04/17 06:09:56;;;;;;;0.52;0.52;;;18.60;47.50;;;;;;5074088;28;20171;-68
2021/04/17 06:12:21;;;;;;;1.13;0.60;;;18.60;47.60;;;;;;5073953;28;20173;-67
2021/04/17 06:14:47;;;;;;;0.50;0.50;;;18.60;47.60;;;;;;5055598;28;20175;-68
2021/04/17 06:17:12;;;;;;;0.60;0.60;;;18.60;47.60;;;;;;5056129;28;20684;-67
2021/04/17 06:19:38;;;;;;;0.60;0.60;;;18.60;47.60;;;;;;5073469;28;20233;-67
2021/04/17 06:22:04;;;;;;;0.50;0.50;;;18.50;47.60;;;;;;5073057;28;20206;-68
2021/04/17 06:24:30;;;;;;;0.52;0.50;;;18.50;47.80;;;;;;5073454;28;20182;-67
2021/04/17 06:26:55;;;;;;;0.70;0.70;;;18.40;47.90;;;;;;5056074;28;20167;-68
2021/04/17 06:29:21;;;;;;;0.68;0.60;;;18.30;48.00;;;;;;5054945;28;20635;-68
2021/04/17 06:31:47;;;;;;;0.88;0.50;;;18.20;48.00;;;;;;5073736;28;20271;-68
2021/04/17 06:34:12;;;;;;;0.98;0.70;;;18.20;48.30;;;;;;5073689;28;20174;-68
2021/04/17 06:36:38;;;;;;;1.30;0.60;;;18.10;48.30;;;;;;5055001;28;21212;-69
2021/04/17 06:39:06;;;;;;;0.70;0.68;;;18.00;48.40;;;;;;5073722;28;20177;-69
2021/04/17 06:41:32;;;;;;;0.50;0.50;;;18.00;48.50;;;;;;5055747;28;20523;-69
2021/04/17 06:43:58;;;;;;;0.70;0.70;;;18.00;48.70;;;;;;5055057;28;20162;-69
2021/04/17 06:46:23;;;;;;;0.70;0.70;;;18.00;48.80;;;;;;5022240;28;20174;-69
2021/04/17 06:48:49;;;;;;;0.50;0.50;;;18.00;48.80;;;;;;5038952;28;20170;-67
2021/04/17 06:51:17;;;;;;;0.60;0.60;;;18.10;48.80;;;;;;5055169;28;20763;-68
2021/04/17 06:53:43;;;;;;;1.08;0.70;;;18.10;48.70;;;;;;5055027;28;20528;-67
2021/04/17 06:56:09;;;;;;;1.13;0.70;;;18.20;48.70;;;;;;5073281;28;20205;-68
2021/04/17 06:58:35;;;;;;;0.60;0.60;;;18.10;48.60;;;;;;5054605;28;20190;-69
2021/04/17 07:01:01;;;;;;;0.60;0.60;;;18.10;48.60;;;;;;5038813;28;20175;-69
2021/04/17 07:03:27;;;;;;;0.88;0.88;;;18.10;48.70;;;;;;5072399;28;20673;-66
2021/04/17 07:05:52;;;;;;;0.60;0.55;;;18.10;48.80;;;;;;5054904;28;20630;-63
2021/04/17 07:08:18;;;;;;;1.35;0.98;;;18.10;48.80;;;;;;5055296;28;20649;-65
2021/04/17 07:10:43;;;;;;;2.47;0.80;;;18.10;48.80;;;;;;5072494;28;20171;-64
2021/04/17 07:13:13;;;;;;;2.00;1.23;;;18.10;48.90;;;;;;5055028;28;20182;-69
2021/04/17 07:15:41;;;;;;;1.08;0.90;;;18.10;49.10;;;;;;5072568;28;20661;-67
2021/04/17 07:18:28;;;;;;;1.58;1.15;;;18.20;49.10;;;;;;5037665;28;20178;-67
2021/04/17 07:20:54;;;;;;;6.20;1.08;;;18.20;48.90;;;;;;5072969;28;20315;-68
2021/04/17 07:23:32;;;;;;;5.38;1.30;;;18.20;48.90;;;;;;5038205;28;20163;-69
2021/04/17 07:26:16;;;;;;;4.40;1.60;;;18.20;48.90;;;;;;5072042;28;20634;-67
2021/04/17 07:28:58;;;;;;;3.05;1.23;;;18.20;48.90;;;;;;5038179;28;20215;-68
2021/04/17 07:31:24;;;;;;;2.75;1.20;;;18.10;48.90;;;;;;5054992;28;20166;-68
2021/04/17 07:33:50;;;;;;;5.88;1.48;;;18.10;49.00;;;;;;5072008;28;20169;-69
2021/04/17 07:36:16;;;;;;;2.95;1.50;;;18.10;49.00;;;;;;5054964;28;20210;-69
2021/04/17 07:38:46;;;;;;;4.93;1.23;;;18.10;49.70;;;;;;5054132;28;20174;-68
2021/04/17 07:41:21;;;;;;;2.72;1.20;;;18.10;49.10;;;;;;5055323;28;20167;-69
2021/04/17 07:44:02;;;;;;;4.78;1.98;;;18.10;49.10;;;;;;5054853;28;20166;-68
2021/04/17 07:46:29;;;;;;;3.92;1.90;;;18.10;49.10;;;;;;5039362;28;20162;-66
2021/04/17 07:49:19;;;;;;;3.22;1.27;;;18.10;49.00;;;;;;5054649;28;20258;-67
2021/04/17 07:51:57;;;;;;;3.08;1.30;;;18.10;48.90;;;;;;5045084;28;20637;-66
2021/04/17 07:54:22;;;;;;;2.17;1.20;;;18.10;48.90;;;;;;5071529;28;20200;-66
2021/04/17 07:56:48;;;;;;;2.50;1.60;;;18.10;48.90;;;;;;5037888;28;20210;-66
2021/04/17 07:59:14;;;;;;;2.88;1.25;;;18.10;48.90;;;;;;5038069;28;20640;-68
2021/04/17 08:01:39;;;;;;;3.58;1.20;;;18.10;48.90;;;;;;5053637;28;20271;-68
2021/04/17 08:04:05;;;;;;;2.10;1.35;;;18.00;48.80;;;;;;5037839;28;20182;-68
2021/04/17 08:06:31;;;;;;;2.28;1.38;;;18.00;48.80;;;;;;5054363;28;20174;-72
2021/04/17 08:08:58;;;;;;;2.80;1.38;;;18.10;48.90;;;;;;5071616;28;20159;-68
2021/04/17 08:11:25;;;;;;;2.17;1.35;;;18.10;48.90;;;;;;5054459;28;20273;-67
2021/04/17 08:13:51;;;;;;;2.78;1.30;;;18.10;48.80;;;;;;5053752;28;20170;-67
2021/04/17 08:16:18;;;;;;;1.85;0.90;;;18.20;48.80;;;;;;5038074;28;20206;-67
2021/04/17 08:18:45;;;;;;;2.92;1.30;;;18.20;49.40;;;;;;5056202;28;20309;-67
2021/04/17 08:21:11;;;;;;;3.17;1.42;;;18.20;48.70;;;;;;5041260;28;20308;-67
2021/04/17 08:23:37;;;;;;;2.80;1.60;;;18.20;48.70;;;;;;5041788;28;20198;-67
2021/04/17 08:26:05;;;;;;;2.65;1.45;;;18.10;48.80;;;;;;5041782;28;20578;-67
2021/04/17 08:28:31;;;;;;;2.03;1.30;;;18.10;48.80;;;;;;5041138;28;20258;-68
2021/04/17 08:31:19;;;;;;;2.65;1.30;;;18.10;49.40;;;;;;5025020;28;20281;-68
2021/04/17 08:33:44;;;;;;;1.92;1.30;;;18.10;48.70;;;;;;5076040;28;20697;-68
2021/04/17 08:36:10;;;;;;;3.90;1.35;;;18.10;48.70;;;;;;5041125;28;20289;-68
2021/04/17 08:38:36;;;;;;;1.92;1.40;;;18.10;48.60;;;;;;5057792;28;20171;-67
2021/04/17 08:41:01;;;;;;;2.75;1.38;;;18.20;48.70;;;;;;5041349;28;20182;-68
2021/04/17 08:43:29;;;;;;;4.47;1.45;;;18.10;48.70;;;;;;5023890;28;20170;-66
2021/04/17 08:46:13;;;;;;;2.50;1.33;;;18.10;48.60;;;;;;5041329;28;20174;-67
2021/04/17 08:48:49;;;;;;;3.75;1.48;;;18.20;48.60;;;;;;5042172;28;20229;-68
2021/04/17 08:51:37;;;;;;;1.63;1.30;;;18.20;48.50;;;;;;5075479;28;20332;-66
2021/04/17 08:54:05;;;;;;;2.40;1.17;;;18.20;48.60;;;;;;5075391;28;20175;-69
2021/04/17 08:56:48;;;;;;;2.90;1.45;;;18.30;48.70;;;;;;5056821;28;20210;-70
2021/04/17 08:59:19;;;;;;;4.95;1.50;;;18.30;48.60;;;;;;5057965;28;20253;-69
2021/04/17 09:01:44;;;;;;;3.92;1.42;;;18.30;48.60;;;;;;5041671;28;20196;-68
2021/04/17 09:04:11;;;;;;;1.73;1.27;;;18.30;48.70;;;;;;5056735;28;20181;-67
2021/04/17 09:06:45;;;;;;;2.97;1.55;;;18.40;48.70;;;;;;5040871;28;20163;-68
2021/04/17 09:09:16;;;;;;;1.90;1.02;;;18.40;48.70;;;;;;5057548;28;20199;-69
2021/04/17 09:11:46;;;;;;;2.05;1.33;;;18.40;48.80;;;;;;5074541;28;20244;-66
2021/04/17 09:14:27;;;;;;;3.03;1.20;;;18.40;49.50;;;;;;5057279;28;20170;-67
2021/04/17 09:16:57;;;;;;;1.58;1.10;;;18.50;48.90;;;;;;5074978;28;20205;-65
2021/04/17 09:19:38;;;;;;;3.05;1.13;;;18.50;48.90;;;;;;5056672;28;20210;-65
2021/04/17 09:22:22;;;;;;;1.35;1.20;;;18.50;49.00;;;;;;5075099;28;20170;-66
2021/04/17 09:24:48;;;;;;;2.35;1.33;;;18.50;49.10;;;;;;5059423;28;20656;-65
2021/04/17 09:27:26;;;;;;;2.42;1.15;;;18.50;49.10;;;;;;5057225;28;20269;-66
2021/04/17 09:29:58;;;;;;;2.17;1.10;;;18.50;49.10;;;;;;5074881;28;20550;-64
2021/04/17 09:32:31;;;;;;;2.92;1.40;;;18.60;49.10;;;;;;5056317;28;20171;-64
2021/04/17 09:34:57;;;;;;;1.30;1.20;;;18.60;49.80;;;;;;5056863;28;20166;-64
2021/04/17 09:37:31;;;;;;;2.00;1.30;;;18.60;49.20;;;;;;5056704;28;20593;-67
2021/04/17 09:39:57;;;;;;;2.47;1.20;;;18.60;49.20;;;;;;5057313;28;20249;-66
2021/04/17 09:42:30;;;;;;;1.80;1.10;;;18.60;49.20;;;;;;5040196;28;20681;-66
2021/04/17 09:44:55;;;;;;;3.05;1.63;;;18.60;49.20;;;;;;5046271;28;20223;-66
2021/04/17 09:47:21;;;;;;;1.88;1.15;;;18.60;49.20;;;;;;5075724;28;20174;-65
2021/04/17 09:49:48;;;;;;;1.30;1.20;;;18.60;49.20;;;;;;5094405;28;20265;-64
2021/04/17 09:52:18;;;;;;;1.10;1.00;;;18.60;49.20;;;;;;5076196;28;20192;-65
2021/04/17 09:54:45;;;;;;;1.63;1.30;;;18.70;49.20;;;;;;5057133;28;20174;-65
2021/04/17 09:57:11;;;;;;;2.95;1.30;;;18.60;49.80;;;;;;5039918;28;20214;-66
2021/04/17 09:59:36;;;;;;;1.13;0.90;;;18.60;49.80;;;;;;5073196;28;20215;-66
2021/04/17 10:02:02;;;;;;;2.65;1.10;;;18.60;49.10;;;;;;5061281;28;20630;-66
2021/04/17 10:04:57;;;;;;;2.13;0.80;;;18.60;49.30;;;;;;5056361;28;20617;-66
2021/04/17 10:07:22;;;;;;;2.88;1.08;;;18.60;49.20;;;;;;5073622;28;20213;-66
2021/04/17 10:10:17;;;;;;;1.80;1.00;;;18.70;49.90;;;;;;5056196;28;20194;-66
2021/04/17 10:12:49;;;;;;;1.75;1.33;;;18.70;49.10;;;;;;5056606;28;20257;-65
2021/04/17 10:15:16;;;;;;;1.35;1.02;;;18.70;49.10;;;;;;5072276;28;20198;-66
2021/04/17 10:17:42;;;;;;;0.80;0.80;;;18.60;49.10;;;;;;5055719;28;20348;-67
2021/04/17 10:20:09;;;;;;;1.90;1.17;;;18.70;49.20;;;;;;5042391;28;20218;-66
2021/04/17 10:22:35;;;;;;;2.38;1.10;;;18.70;49.20;;;;;;5055135;28;20185;-65
2021/04/17 10:25:00;;;;;;;1.25;1.00;;;18.70;49.00;;;;;;5055967;28;20171;-66
2021/04/17 10:27:33;;;;;;;1.52;1.00;;;18.70;49.20;;;;;;5073102;28;20174;-67
2021/04/17 10:29:59;;;;;;;1.00;0.80;;;18.60;49.10;;;;;;5073642;28;20239;-66
2021/04/17 10:32:26;;;;;;;5.90;1.67;;;18.60;49.20;;;;;;5073428;28;20607;-68
2021/04/17 10:34:52;;;;;;;1.35;1.02;;;18.70;49.10;;;;;;5055103;28;20162;-63
2021/04/17 10:37:23;;;;;;;3.38;1.40;;;18.80;49.00;;;;;;5073535;28;20214;-68
2021/04/17 10:40:05;;;;;;;1.60;1.17;;;18.80;48.90;;;;;;5055815;28;20248;-68
2021/04/17 10:43:00;;;;;;;2.88;1.42;;;18.80;48.80;;;;;;5072111;28;20261;-68
2021/04/17 10:45:29;;;;;;;1.83;1.10;;;18.70;48.70;;;;;;5055469;28;20531;-64
2021/04/17 10:48:01;;;;;;;3.10;1.30;;;18.70;48.40;;;;;;5073412;28;20245;-64
2021/04/17 10:50:27;;;;;;;2.08;1.20;;;18.80;48.40;;;;;;5072575;28;20167;-64
2021/04/17 10:53:08;;;;;;;2.53;1.20;;;18.80;48.30;;;;;;5040617;28;20182;-64
2021/04/17 10:55:40;;;;;;;3.22;1.30;;;18.80;48.30;;;;;;5072141;28;20190;-67
2021/04/17 10:58:06;;;;;;;2.33;1.05;;;18.80;48.30;;;;;;5073092;28;20200;-63
2021/04/17 11:00:33;;;;;;;2.60;1.20;;;18.80;48.30;;;;;;5055129;28;20510;-63
2021/04/17 11:02:59;;;;;;;1.92;1.10;;;18.80;48.30;;;;;;5072467;28;20623;-63
2021/04/17 11:05:32;;;;;;;1.67;1.25;;;18.70;48.50;;;;;;5054859;28;20193;-64
2021/04/17 11:07:59;;;;;;;2.25;1.10;;;18.70;48.70;;;;;;5055152;28;20198;-63
2021/04/17 11:10:31;;;;;;;2.63;0.98;;;18.70;48.80;;;;;;5054309;28;20545;-64
2021/04/17 11:12:56;;;;;;;2.90;1.13;;;18.70;48.80;;;;;;5071855;28;20197;-64
2021/04/17 11:15:24;;;;;;;3.70;1.45;;;18.80;48.70;;;;;;5072619;28;20212;-64
2021/04/17 11:18:09;;;;;;;1.50;1.02;;;18.90;48.80;;;;;;5071124;28;20182;-63
2021/04/17 11:20:57;;;;;;;1.30;1.13;;;18.90;48.70;;;;;;5072685;28;20217;-64
2021/04/17 11:23:40;;;;;;;2.05;1.20;;;18.90;48.80;;;;;;5073013;28;20212;-64
2021/04/17 11:26:25;;;;;;;2.75;1.58;;;18.80;49.00;;;;;;5071492;28;20645;-63
2021/04/17 11:28:53;;;;;;;3.33;1.45;;;18.70;48.60;;;;;;5055101;28;20185;-64
2021/04/17 11:31:26;;;;;;;1.45;1.20;;;18.60;48.60;;;;;;5071986;28;20177;-64
2021/04/17 11:33:53;;;;;;;3.50;1.38;;;18.70;48.70;;;;;;5071417;28;20582;-64
2021/04/17 11:36:20;;;;;;;3.45;1.20;;;18.70;48.60;;;;;;5072336;28;20596;-66
2021/04/17 11:38:46;;;;;;;1.48;1.10;;;18.70;48.50;;;;;;5071022;28;20599;-68
2021/04/17 11:41:11;;;;;;;4.00;1.30;;;18.70;48.50;;;;;;5071672;28;20253;-68
2021/04/17 11:43:37;;;;;;;2.50;1.20;;;18.80;48.70;;;;;;5054723;28;20557;-67
2021/04/17 11:46:02;;;;;;;3.17;1.17;;;18.80;48.50;;;;;;5070782;28;20174;-66
2021/04/17 11:48:28;;;;;;;2.60;1.50;;;18.80;48.60;;;;;;5054374;28;20186;-66
2021/04/17 11:50:54;;;;;;;1.98;1.05;;;18.70;49.30;;;;;;5071406;28;20170;-66
2021/04/17 11:53:20;;;;;;;2.97;1.20;;;18.70;48.80;;;;;;5079835;28;20644;-65
2021/04/17 11:55:47;;;;;;;1.88;1.20;;;18.60;48.90;;;;;;5092398;28;20221;-65
2021/04/17 11:58:13;;;;;;;4.28;1.35;;;18.70;49.10;;;;;;5092736;28;20701;-68
2021/04/17 12:00:38;;;;;;;14.30;1.58;;;18.60;49.70;;;;;;5073607;28;20177;-67
2021/04/17 12:03:04;;;;;;;3.25;1.33;;;18.80;48.90;;;;;;5092764;28;20169;-61
2021/04/17 12:05:30;;;;;;;3.28;1.17;;;18.80;48.60;;;;;;5074302;28;20178;-65
2021/04/17 12:07:55;;;;;;;3.78;1.20;;;18.90;49.10;;;;;;5091885;28;20533;-65
2021/04/17 12:10:21;;;;;;;1.77;1.25;;;18.90;48.40;;;;;;5074191;28;20182;-66
2021/04/17 12:12:46;;;;;;;1.13;1.02;;;18.90;48.30;;;;;;5092357;28;20169;-66
2021/04/17 12:15:16;;;;;;;2.03;1.40;;;18.80;48.40;;;;;;5073927;28;20173;-66
2021/04/17 12:17:42;;;;;;;2.40;1.00;;;18.80;48.70;;;;;;5092003;28;20216;-65
2021/04/17 12:20:08;;;;;;;2.35;1.20;;;18.70;48.80;;;;;;5073490;28;20344;-66
2021/04/17 12:22:33;;;;;;;2.38;1.20;;;18.70;48.90;;;;;;5074167;28;20262;-66
2021/04/17 12:24:59;;;;;;;1.10;1.00;;;18.80;48.90;;;;;;5074259;28;20248;-65
2021/04/17 12:27:24;;;;;;;2.38;1.30;;;18.70;49.00;;;;;;5056930;28;20186;-65
2021/04/17 12:29:50;;;;;;;1.70;1.10;;;18.70;49.20;;;;;;5092102;28;20656;-65
2021/04/17 12:32:16;;;;;;;2.53;1.00;;;18.60;49.20;;;;;;5057731;28;20176;-64
2021/04/17 12:34:42;;;;;;;2.47;1.40;;;18.70;49.30;;;;;;5091455;28;20257;-63
2021/04/17 12:37:07;;;;;;;1.25;1.00;;;18.80;49.10;;;;;;5092079;28;20237;-63
2021/04/17 12:39:33;;;;;;;1.83;1.23;;;18.90;49.00;;;;;;5057318;28;20174;-64
2021/04/17 12:41:58;;;;;;;4.25;1.30;;;18.80;49.70;;;;;;5091421;28;20173;-63
2021/04/17 12:44:24;;;;;;;4.38;1.27;;;18.80;49.00;;;;;;5091861;28;20178;-70
2021/04/17 12:46:50;;;;;;;3.42;1.27;;;18.80;48.80;;;;;;5092122;28;20178;-66
2021/04/17 12:49:15;;;;;;;5.15;1.48;;;18.80;49.00;;;;;;5073802;28;20165;-66
2021/04/17 12:51:41;;;;;;;3.75;1.60;;;18.70;48.70;;;;;;5073952;28;20629;-64